createdAt,value
2023-03-19T00:00:46.229Z,99.90
2023-03-19T00:03:34.315Z,99.90
2023-03-19T00:06:02.494Z,99.90
2023-03-19T00:08:29.480Z,99.90
2023-03-19T00:10:56.736Z,99.90
2023-03-19T00:13:23.649Z,99.90
2023-03-19T00:15:50.991Z,99.90
2023-03-19T00:18:18.256Z,99.90
2023-03-19T00:20:45.785Z,99.90
2023-03-19T00:23:12.806Z,99.90
2023-03-19T00:25:40.353Z,99.90
2023-03-19T00:28:07.923Z,99.90
2023-03-19T00:30:35.249Z,99.90
2023-03-19T00:33:02.867Z,99.90
2023-03-19T00:35:30.167Z,99.90
2023-03-19T00:37:57.664Z,99.90
2023-03-19T00:40:25.214Z,99.90
2023-03-19T00:42:52.129Z,99.90
2023-03-19T00:45:19.532Z,99.90
2023-03-19T00:47:46.535Z,99.90
2023-03-19T00:50:14.006Z,99.90
2023-03-19T00:52:41.604Z,99.90
2023-03-19T00:55:09.547Z,99.90
2023-03-19T00:57:36.560Z,99.90
2023-03-19T01:00:04.992Z,99.90
2023-03-19T01:02:32.505Z,99.90
2023-03-19T01:04:59.920Z,99.90
2023-03-19T01:07:26.998Z,99.90
2023-03-19T01:09:54.512Z,99.90
2023-03-19T01:12:21.404Z,99.90
2023-03-19T01:14:48.689Z,99.90
2023-03-19T01:17:16.115Z,99.90
2023-03-19T01:19:43.428Z,99.90
2023-03-19T01:22:10.591Z,99.90
2023-03-19T01:24:40.997Z,99.90
2023-03-19T01:27:08.484Z,99.90
2023-03-19T01:29:36.615Z,99.90
2023-03-19T01:32:12.053Z,99.90
2023-03-19T01:34:59.302Z,99.90
2023-03-19T01:37:26.489Z,99.90
2023-03-19T01:39:53.948Z,99.90
2023-03-19T01:42:21.414Z,99.90
2023-03-19T01:45:46.731Z,99.90
2023-03-19T01:48:59.984Z,99.90
2023-03-19T01:51:35.999Z,99.90
2023-03-19T01:54:43.125Z,99.90
2023-03-19T01:57:36.550Z,99.90
2023-03-19T02:00:22.860Z,99.90
2023-03-19T02:02:58.284Z,99.90
2023-03-19T02:05:47.631Z,99.90
2023-03-19T02:08:18.924Z,99.90
2023-03-19T02:10:48.108Z,99.90
2023-03-19T02:13:16.178Z,99.90
2023-03-19T02:15:43.557Z,99.90
2023-03-19T02:18:11.082Z,99.90
2023-03-19T02:21:03.247Z,99.90
2023-03-19T02:23:55.860Z,99.90
2023-03-19T02:26:42.686Z,99.90
2023-03-19T02:29:10.332Z,99.90
2023-03-19T02:31:37.394Z,99.90
2023-03-19T02:34:27.675Z,99.90
2023-03-19T02:37:05.469Z,99.90
2023-03-19T02:40:12.776Z,99.90
2023-03-19T02:42:39.877Z,99.90
2023-03-19T02:45:08.732Z,99.90
2023-03-19T02:47:36.049Z,99.90
2023-03-19T02:50:04.131Z,99.90
2023-03-19T02:52:31.175Z,99.90
2023-03-19T02:54:58.366Z,99.90
2023-03-19T02:57:25.901Z,99.90
2023-03-19T02:59:53.218Z,99.90
2023-03-19T03:02:20.547Z,99.90
2023-03-19T03:04:48.841Z,99.90
2023-03-19T03:07:15.866Z,99.90
2023-03-19T03:09:43.133Z,99.90
2023-03-19T03:12:10.555Z,99.90
2023-03-19T03:14:38.028Z,99.90
2023-03-19T03:17:05.750Z,99.90
2023-03-19T03:19:33.214Z,99.90
2023-03-19T03:22:01.023Z,99.90
2023-03-19T03:24:28.614Z,99.90
2023-03-19T03:26:57.863Z,99.90
2023-03-19T03:29:25.897Z,99.90
2023-03-19T03:31:53.096Z,99.90
2023-03-19T03:34:20.916Z,99.90
2023-03-19T03:36:47.952Z,99.90
2023-03-19T03:39:15.300Z,99.90
2023-03-19T03:41:42.534Z,99.90
2023-03-19T03:44:10.235Z,99.90
2023-03-19T03:46:40.069Z,99.90
2023-03-19T03:49:07.491Z,99.90
2023-03-19T03:51:34.621Z,99.90
2023-03-19T03:54:02.626Z,99.90
2023-03-19T03:56:31.363Z,99.90
2023-03-19T03:58:58.724Z,99.90
2023-03-19T04:01:25.832Z,99.90
2023-03-19T04:03:56.400Z,99.90
2023-03-19T04:06:25.636Z,99.90
2023-03-19T04:09:09.060Z,99.90
2023-03-19T04:11:38.844Z,99.90
2023-03-19T04:14:08.008Z,99.90
2023-03-19T04:16:36.599Z,99.90
2023-03-19T04:19:04.912Z,99.90
2023-03-19T04:21:31.981Z,99.90
2023-03-19T04:23:59.269Z,99.90
2023-03-19T04:26:27.019Z,99.90
2023-03-19T04:28:54.609Z,99.90
2023-03-19T04:31:22.095Z,99.90
2023-03-19T04:33:49.592Z,99.90
2023-03-19T04:36:17.857Z,99.90
2023-03-19T04:38:45.113Z,99.90
2023-03-19T04:41:18.205Z,99.90
2023-03-19T04:43:59.017Z,99.90
2023-03-19T04:46:28.728Z,99.90
2023-03-19T04:48:56.043Z,99.90
2023-03-19T04:51:24.036Z,99.90
2023-03-19T04:53:52.056Z,99.90
2023-03-19T04:56:19.449Z,99.90
2023-03-19T04:58:46.850Z,99.90
2023-03-19T05:01:14.464Z,99.90
2023-03-19T05:03:59.093Z,99.90
2023-03-19T05:06:27.211Z,99.90
2023-03-19T05:08:55.249Z,99.90
2023-03-19T05:11:23.174Z,99.90
2023-03-19T05:14:16.849Z,99.90
2023-03-19T05:16:57.019Z,99.90
2023-03-19T05:19:26.296Z,99.90
2023-03-19T05:21:53.593Z,99.90
2023-03-19T05:24:25.600Z,99.90
2023-03-19T05:26:54.208Z,99.90
2023-03-19T05:29:42.548Z,99.90
2023-03-19T05:32:47.127Z,99.90
2023-03-19T05:35:30.855Z,99.90
2023-03-19T05:37:59.520Z,99.90
2023-03-19T05:40:27.212Z,99.90
2023-03-19T05:42:55.268Z,99.90
2023-03-19T05:45:25.694Z,99.90
2023-03-19T05:47:56.696Z,99.90
2023-03-19T05:50:25.744Z,99.90
2023-03-19T05:53:10.781Z,99.90
2023-03-19T05:55:41.147Z,99.90
2023-03-19T05:58:11.236Z,99.90
2023-03-19T06:00:39.147Z,99.90
2023-03-19T06:03:06.359Z,99.90
2023-03-19T06:05:42.818Z,99.90
2023-03-19T06:08:21.945Z,99.90
2023-03-19T06:11:01.095Z,99.90
2023-03-19T06:13:28.809Z,99.90
2023-03-19T06:16:01.265Z,99.90
2023-03-19T06:18:34.616Z,99.90
2023-03-19T06:21:07.088Z,99.90
2023-03-19T06:23:34.116Z,99.90
2023-03-19T06:26:02.801Z,99.90
2023-03-19T06:28:36.547Z,99.90
2023-03-19T06:31:05.261Z,99.90
2023-03-19T06:33:51.331Z,99.90
2023-03-19T06:36:19.246Z,99.90
2023-03-19T06:38:48.530Z,99.90
2023-03-19T06:41:16.617Z,99.90
2023-03-19T06:43:44.385Z,99.90
2023-03-19T06:46:12.130Z,99.90
2023-03-19T06:48:39.229Z,99.90
2023-03-19T06:51:07.020Z,99.90
2023-03-19T06:53:34.879Z,99.90
2023-03-19T06:56:02.457Z,99.90
2023-03-19T06:58:29.428Z,99.90
2023-03-19T07:00:58.576Z,99.90
2023-03-19T07:03:25.692Z,99.90
2023-03-19T07:05:53.530Z,99.90
2023-03-19T07:08:20.702Z,99.90
2023-03-19T07:10:48.439Z,99.90
2023-03-19T07:13:15.409Z,99.90
2023-03-19T07:15:42.919Z,99.90
2023-03-19T07:18:10.143Z,99.90
2023-03-19T07:20:37.614Z,99.90
2023-03-19T07:23:04.784Z,99.90
2023-03-19T07:25:32.312Z,99.90
2023-03-19T07:27:59.645Z,99.90
2023-03-19T07:30:27.153Z,99.90
2023-03-19T07:32:55.422Z,99.90
2023-03-19T07:35:23.033Z,99.90
2023-03-19T07:37:50.748Z,99.90
2023-03-19T07:40:18.613Z,99.90
2023-03-19T07:42:45.638Z,99.90
2023-03-19T07:45:13.638Z,99.90
2023-03-19T07:47:40.976Z,99.90
2023-03-19T07:50:09.983Z,99.90
2023-03-19T07:52:37.108Z,99.90
2023-03-19T07:55:05.352Z,99.90
2023-03-19T07:57:32.940Z,99.90
2023-03-19T08:00:00.256Z,99.90
2023-03-19T08:02:27.376Z,99.90
2023-03-19T08:04:55.714Z,99.90
2023-03-19T08:07:22.946Z,99.90
2023-03-19T08:09:50.340Z,99.90
2023-03-19T08:12:17.314Z,99.90
2023-03-19T08:14:44.910Z,99.90
2023-03-19T08:17:12.585Z,99.50
2023-03-19T08:19:40.173Z,99.90
2023-03-19T08:22:07.302Z,99.90
2023-03-19T08:24:35.272Z,99.90
2023-03-19T08:27:02.329Z,99.90
2023-03-19T08:29:29.915Z,99.90
2023-03-19T08:31:58.591Z,99.20
2023-03-19T08:34:26.932Z,99.00
2023-03-19T08:36:53.831Z,99.80
2023-03-19T08:39:21.130Z,99.30
2023-03-19T08:41:48.235Z,98.70
2023-03-19T08:44:15.817Z,98.60
2023-03-19T08:46:43.028Z,98.60
2023-03-19T08:49:10.947Z,98.10
2023-03-19T08:51:38.364Z,97.80
2023-03-19T08:54:06.114Z,97.70
2023-03-19T08:56:33.065Z,92.20
2023-03-19T08:59:00.450Z,95.40
2023-03-19T09:01:27.700Z,94.40
2023-03-19T09:03:55.106Z,94.70
2023-03-19T09:06:22.222Z,94.20
2023-03-19T09:08:49.730Z,94.00
2023-03-19T09:11:18.039Z,94.70
2023-03-19T09:13:45.550Z,94.10
2023-03-19T09:16:12.636Z,92.70
2023-03-19T09:18:40.287Z,93.20
2023-03-19T09:21:07.490Z,93.00
2023-03-19T09:23:35.144Z,91.70
2023-03-19T09:26:02.030Z,92.70
2023-03-19T09:28:29.284Z,91.00
2023-03-19T09:30:56.363Z,90.90
2023-03-19T09:33:23.718Z,90.60
2023-03-19T09:35:53.340Z,90.40
2023-03-19T09:38:21.898Z,90.40
2023-03-19T09:41:12.767Z,88.90
2023-03-19T09:44:00.267Z,76.30
2023-03-19T09:47:19.153Z,86.10
2023-03-19T09:49:50.910Z,86.10
2023-03-19T09:52:50.732Z,89.10
2023-03-19T09:55:24.285Z,90.20
2023-03-19T09:57:56.109Z,90.60
2023-03-19T10:00:29.822Z,90.60
2023-03-19T10:03:29.812Z,90.50
2023-03-19T10:06:25.410Z,90.50
2023-03-19T10:09:32.583Z,90.00
2023-03-19T10:12:17.447Z,90.20
2023-03-19T10:15:17.248Z,89.50
2023-03-19T10:18:21.102Z,89.60
2023-03-19T10:21:09.577Z,88.90
2023-03-19T10:24:04.211Z,89.90
2023-03-19T10:26:37.482Z,90.00
2023-03-19T10:29:20.653Z,89.20
2023-03-19T10:31:59.526Z,87.50
2023-03-19T10:34:37.762Z,88.30
2023-03-19T10:37:12.470Z,86.80
2023-03-19T10:39:43.766Z,88.40
2023-03-19T10:42:58.053Z,88.10
2023-03-19T10:45:37.901Z,87.70
2023-03-19T10:48:13.319Z,83.70
2023-03-19T10:50:55.195Z,81.50
2023-03-19T10:53:39.206Z,85.40
2023-03-19T10:56:23.267Z,85.80
2023-03-19T10:59:25.336Z,85.90
2023-03-19T11:01:59.527Z,84.00
2023-03-19T11:04:28.729Z,85.10
2023-03-19T11:07:03.337Z,84.10
2023-03-19T11:09:36.868Z,82.40
2023-03-19T11:12:37.275Z,79.80
2023-03-19T11:15:22.133Z,74.90
2023-03-19T11:17:58.394Z,74.30
2023-03-19T11:20:36.339Z,72.60
2023-03-19T11:23:18.029Z,73.30
2023-03-19T11:25:53.482Z,74.60
2023-03-19T11:28:26.376Z,75.20
2023-03-19T11:31:00.753Z,75.60
2023-03-19T11:33:42.933Z,77.70
2023-03-19T11:36:37.921Z,79.40
2023-03-19T11:40:10.621Z,78.30
2023-03-19T11:42:51.424Z,76.90
2023-03-19T11:45:42.080Z,78.60
2023-03-19T11:48:19.435Z,79.80
2023-03-19T11:50:58.528Z,80.40
2023-03-19T11:53:56.762Z,80.60
2023-03-19T11:56:55.644Z,81.10
2023-03-19T12:00:10.697Z,77.30
2023-03-19T12:03:32.133Z,73.80
2023-03-19T12:06:38.134Z,76.60
2023-03-19T12:09:35.343Z,76.80
2023-03-19T12:12:46.819Z,76.80
2023-03-19T12:15:54.960Z,77.60
2023-03-19T12:19:11.922Z,73.30
2023-03-19T12:22:03.430Z,71.70
2023-03-19T12:25:01.492Z,72.00
2023-03-19T12:27:55.585Z,74.20
2023-03-19T12:30:42.193Z,73.00
2023-03-19T12:33:43.569Z,75.00
2023-03-19T12:36:23.487Z,75.30
2023-03-19T12:39:02.343Z,75.30
2023-03-19T12:41:33.816Z,74.30
2023-03-19T12:44:13.743Z,73.80
2023-03-19T12:47:09.665Z,73.30
2023-03-19T12:49:47.530Z,71.30
2023-03-19T12:52:38.003Z,71.50
2023-03-19T12:55:23.076Z,72.80
2023-03-19T12:58:20.709Z,74.20
2023-03-19T13:01:03.628Z,66.40
2023-03-19T13:03:44.543Z,73.10
2023-03-19T13:06:28.688Z,74.00
2023-03-19T13:09:10.216Z,73.60
2023-03-19T13:11:52.692Z,74.00
2023-03-19T13:14:34.932Z,73.50
2023-03-19T13:17:17.174Z,75.00
2023-03-19T13:19:51.045Z,74.00
2023-03-19T13:22:34.579Z,73.40
2023-03-19T13:25:03.714Z,73.90
2023-03-19T13:27:36.304Z,73.20
2023-03-19T13:30:10.083Z,60.50
2023-03-19T13:32:51.407Z,73.30
2023-03-19T13:35:44.562Z,72.20
2023-03-19T13:38:24.686Z,70.00
2023-03-19T13:40:56.538Z,73.50
2023-03-19T13:43:29.966Z,73.60
2023-03-19T13:46:12.554Z,71.80
2023-03-19T13:48:46.922Z,72.60
2023-03-19T13:51:20.172Z,60.70
2023-03-19T13:54:16.374Z,72.20
2023-03-19T13:57:00.918Z,72.50
2023-03-19T13:59:39.864Z,72.70
2023-03-19T14:02:21.909Z,73.30
2023-03-19T14:05:17.191Z,72.80
2023-03-19T14:07:53.160Z,71.50
2023-03-19T14:10:32.040Z,72.70
2023-03-19T14:13:18.504Z,72.90
2023-03-19T14:15:51.946Z,73.60
2023-03-19T14:18:24.686Z,70.10
2023-03-19T14:21:07.093Z,70.40
2023-03-19T14:23:44.265Z,71.30
2023-03-19T14:26:17.925Z,72.70
2023-03-19T14:28:44.935Z,72.10
2023-03-19T14:31:31.168Z,72.70
2023-03-19T14:34:16.555Z,72.50
2023-03-19T14:37:03.935Z,71.60
2023-03-19T14:39:42.319Z,71.10
2023-03-19T14:42:47.105Z,71.60
2023-03-19T14:45:32.014Z,72.60
2023-03-19T14:48:42.021Z,73.30
2023-03-19T14:51:22.444Z,74.00
2023-03-19T14:54:28.370Z,74.40
2023-03-19T14:56:57.477Z,74.60
2023-03-19T14:59:24.797Z,73.90
2023-03-19T15:01:54.011Z,74.40
2023-03-19T15:04:26.089Z,74.50
2023-03-19T15:06:59.822Z,75.10
2023-03-19T15:09:32.195Z,75.40
2023-03-19T15:12:48.131Z,74.60
2023-03-19T15:15:24.395Z,75.20
2023-03-19T15:18:10.826Z,75.30
2023-03-19T15:20:45.473Z,75.50
2023-03-19T15:23:26.745Z,76.00
2023-03-19T15:26:01.478Z,75.90
2023-03-19T15:28:38.158Z,68.60
2023-03-19T15:31:29.136Z,67.70
2023-03-19T15:33:54.252Z,63.60
2023-03-19T15:36:33.185Z,73.90
2023-03-19T15:39:11.787Z,69.60
2023-03-19T15:41:45.968Z,72.70
2023-03-19T15:44:28.881Z,69.40
2023-03-19T15:46:58.025Z,75.80
2023-03-19T15:49:56.408Z,75.50
2023-03-19T15:52:26.338Z,76.40
2023-03-19T15:54:56.239Z,76.40
2023-03-19T15:57:25.092Z,76.50
2023-03-19T15:59:56.075Z,76.70
2023-03-19T16:02:31.993Z,76.60
2023-03-19T16:05:21.038Z,75.70
2023-03-19T16:07:59.473Z,76.80
2023-03-19T16:10:42.204Z,73.40
2023-03-19T16:13:37.736Z,76.20
2023-03-19T16:16:08.570Z,74.10
2023-03-19T16:18:52.168Z,75.70
2023-03-19T16:21:40.180Z,73.00
2023-03-19T16:24:30.796Z,76.70
2023-03-19T16:26:58.985Z,76.70
2023-03-19T16:29:30.271Z,76.70
2023-03-19T16:32:03.180Z,76.70
2023-03-19T16:34:47.480Z,76.70
2023-03-19T16:37:55.045Z,75.00
2023-03-19T16:40:23.600Z,76.60
2023-03-19T16:42:52.761Z,77.20
2023-03-19T16:45:28.431Z,77.30
2023-03-19T16:47:58.368Z,77.40
2023-03-19T16:50:41.282Z,77.50
2023-03-19T16:53:26.691Z,73.50
2023-03-19T16:55:57.194Z,77.70
2023-03-19T16:58:37.586Z,74.60
2023-03-19T17:01:14.585Z,78.20
2023-03-19T17:03:41.962Z,74.10
2023-03-19T17:06:14.623Z,78.50
2023-03-19T17:08:42.753Z,78.80
2023-03-19T17:11:23.308Z,78.90
2023-03-19T17:13:50.774Z,79.10
2023-03-19T17:16:18.108Z,79.20
2023-03-19T17:18:47.749Z,79.40
2023-03-19T17:21:27.076Z,79.90
2023-03-19T17:23:55.399Z,80.40
2023-03-19T17:26:28.629Z,80.60
2023-03-19T17:28:56.612Z,80.90
2023-03-19T17:31:33.047Z,81.00
2023-03-19T17:34:13.742Z,81.30
2023-03-19T17:36:44.436Z,81.50
2023-03-19T17:39:12.066Z,81.70
2023-03-19T17:41:39.708Z,82.00
2023-03-19T17:44:06.971Z,82.30
2023-03-19T17:46:40.908Z,82.50
2023-03-19T17:49:31.779Z,82.70
2023-03-19T17:51:59.859Z,82.80
2023-03-19T17:54:27.806Z,83.30
2023-03-19T17:56:55.697Z,83.40
2023-03-19T17:59:23.225Z,83.70
2023-03-19T18:01:50.868Z,83.80
2023-03-19T18:04:21.035Z,84.10
2023-03-19T18:06:57.605Z,84.20
2023-03-19T18:09:32.781Z,84.70
2023-03-19T18:12:00.232Z,84.70
2023-03-19T18:14:27.296Z,85.00
2023-03-19T18:16:54.867Z,85.20
2023-03-19T18:19:36.085Z,85.20
2023-03-19T18:22:14.909Z,85.60
2023-03-19T18:24:42.288Z,85.80
2023-03-19T18:27:09.450Z,85.80
2023-03-19T18:29:36.480Z,86.20
2023-03-19T18:32:26.065Z,86.30
2023-03-19T18:34:53.552Z,86.00
2023-03-19T18:37:20.931Z,86.30
2023-03-19T18:39:48.953Z,86.60
2023-03-19T18:42:16.633Z,86.40
2023-03-19T18:44:43.805Z,86.70
2023-03-19T18:47:15.784Z,87.00
2023-03-19T18:49:43.711Z,87.20
2023-03-19T18:52:17.236Z,87.50
2023-03-19T18:54:46.868Z,87.50
2023-03-19T18:57:16.425Z,87.50
2023-03-19T18:59:43.851Z,87.90
2023-03-19T19:02:34.747Z,88.10
2023-03-19T19:05:02.155Z,88.30
2023-03-19T19:07:29.688Z,88.50
2023-03-19T19:09:56.722Z,88.40
2023-03-19T19:12:27.079Z,88.90
2023-03-19T19:14:54.406Z,89.20
2023-03-19T19:17:29.421Z,89.50
2023-03-19T19:19:56.483Z,89.90
2023-03-19T19:22:23.867Z,89.70
2023-03-19T19:24:51.090Z,89.90
2023-03-19T19:27:26.488Z,90.00
2023-03-19T19:29:53.703Z,90.00
2023-03-19T19:32:28.561Z,90.20
2023-03-19T19:34:56.549Z,90.20
2023-03-19T19:37:24.278Z,90.20
2023-03-19T19:39:51.798Z,90.30
2023-03-19T19:42:22.603Z,90.60
2023-03-19T19:45:00.319Z,90.50
2023-03-19T19:47:27.879Z,90.60
2023-03-19T19:49:54.815Z,90.90
2023-03-19T19:52:22.596Z,91.00
2023-03-19T19:54:51.612Z,91.00
2023-03-19T19:57:24.627Z,91.10
2023-03-19T19:59:53.985Z,91.20
2023-03-19T20:02:29.313Z,91.40
2023-03-19T20:04:58.401Z,91.50
2023-03-19T20:07:27.138Z,91.60
2023-03-19T20:09:54.081Z,91.70
2023-03-19T20:12:29.313Z,91.90
2023-03-19T20:14:57.419Z,91.90
2023-03-19T20:17:25.178Z,92.10
2023-03-19T20:19:52.529Z,92.10
2023-03-19T20:22:19.849Z,92.30
2023-03-19T20:24:49.546Z,92.30
2023-03-19T20:27:25.456Z,92.30
2023-03-19T20:29:53.745Z,92.60
2023-03-19T20:32:34.119Z,92.70
2023-03-19T20:35:01.963Z,92.80
2023-03-19T20:37:30.089Z,92.90
2023-03-19T20:39:57.087Z,93.00
2023-03-19T20:42:26.463Z,93.10
2023-03-19T20:44:58.498Z,93.20
2023-03-19T20:47:26.273Z,93.30
2023-03-19T20:49:53.899Z,93.30
2023-03-19T20:52:21.440Z,93.50
2023-03-19T20:54:48.863Z,93.60
2023-03-19T20:57:24.231Z,93.70
2023-03-19T20:59:51.234Z,93.80
2023-03-19T21:02:27.538Z,93.90
2023-03-19T21:04:54.720Z,94.00
2023-03-19T21:07:34.469Z,94.20
2023-03-19T21:10:16.619Z,94.20
2023-03-19T21:12:43.854Z,94.50
2023-03-19T21:15:14.529Z,94.60
2023-03-19T21:17:42.238Z,94.70
2023-03-19T21:20:24.120Z,94.80
2023-03-19T21:23:06.763Z,95.00
2023-03-19T21:25:35.691Z,95.00
2023-03-19T21:28:09.980Z,95.10
2023-03-19T21:30:43.547Z,95.30
2023-03-19T21:33:24.375Z,95.40
2023-03-19T21:35:53.926Z,95.60
2023-03-19T21:38:22.570Z,95.60
2023-03-19T21:40:55.016Z,95.70
2023-03-19T21:43:33.501Z,95.80
2023-03-19T21:46:13.818Z,95.80
2023-03-19T21:48:44.937Z,96.10
2023-03-19T21:51:16.570Z,96.20
2023-03-19T21:53:45.571Z,96.20
2023-03-19T21:56:35.505Z,96.50
2023-03-19T21:59:12.874Z,96.50
2023-03-19T22:01:40.577Z,96.60
2023-03-19T22:04:08.079Z,96.70
2023-03-19T22:06:36.462Z,96.70
2023-03-19T22:09:04.378Z,96.80
2023-03-19T22:11:35.925Z,97.10
2023-03-19T22:14:26.913Z,97.10
2023-03-19T22:16:56.538Z,97.20
2023-03-19T22:19:24.575Z,97.30
2023-03-19T22:21:51.922Z,97.50
2023-03-19T22:24:19.132Z,97.50
2023-03-19T22:26:49.471Z,97.60
2023-03-19T22:29:23.505Z,97.70
2023-03-19T22:31:52.596Z,97.70
2023-03-19T22:34:23.696Z,97.90
2023-03-19T22:36:52.559Z,98.00
2023-03-19T22:39:19.985Z,98.40
2023-03-19T22:42:00.352Z,98.10
2023-03-19T22:44:31.199Z,98.20
2023-03-19T22:47:01.044Z,98.30
2023-03-19T22:49:29.820Z,98.50
2023-03-19T22:51:58.250Z,98.60
2023-03-19T22:54:26.406Z,98.70
2023-03-19T22:56:53.352Z,98.70
2023-03-19T22:59:20.530Z,98.90
2023-03-19T23:01:48.529Z,99.00
2023-03-19T23:04:30.571Z,99.10
2023-03-19T23:07:00.368Z,99.20
2023-03-19T23:09:37.803Z,99.30
2023-03-19T23:12:07.326Z,99.40
2023-03-19T23:14:34.910Z,99.50
2023-03-19T23:17:14.288Z,99.60
2023-03-19T23:19:41.561Z,99.70
2023-03-19T23:22:16.270Z,99.70
2023-03-19T23:24:44.611Z,99.80
2023-03-19T23:27:26.035Z,99.90
2023-03-19T23:29:54.442Z,99.90
2023-03-19T23:32:21.933Z,99.90
2023-03-19T23:34:59.522Z,99.90
2023-03-19T23:37:28.822Z,99.90
2023-03-19T23:39:56.431Z,99.90
2023-03-19T23:42:31.466Z,99.90
2023-03-19T23:45:03.665Z,99.90
2023-03-19T23:47:31.043Z,99.90
2023-03-19T23:49:58.995Z,99.90
2023-03-19T23:52:26.146Z,99.90
2023-03-19T23:54:53.420Z,99.90
2023-03-19T23:57:23.177Z,99.90
2023-03-19T23:59:52.295Z,99.90
